createdAt,value
2022-08-03T00:03:28.061Z,20.53
2022-08-03T00:08:29.767Z,20.61
2022-08-03T00:13:31.227Z,20.28
2022-08-03T00:18:32.735Z,20.53
2022-08-03T00:23:52.130Z,20.34
2022-08-03T00:28:54.085Z,20.20
2022-08-03T00:33:58.172Z,20.29
2022-08-03T00:39:01.703Z,20.21
2022-08-03T00:44:03.328Z,20.16
2022-08-03T00:49:04.906Z,20.05
2022-08-03T00:54:06.525Z,20.18
2022-08-03T00:59:09.976Z,20.06
2022-08-03T01:04:11.425Z,19.82
2022-08-03T01:09:22.082Z,19.81
2022-08-03T01:14:35.733Z,20.03
2022-08-03T01:20:08.045Z,19.85
2022-08-03T01:25:54.343Z,19.77
2022-08-03T01:31:01.432Z,19.59
2022-08-03T01:36:13.173Z,19.39
2022-08-03T01:41:19.084Z,19.54
2022-08-03T01:46:22.642Z,19.69
2022-08-03T01:51:24.174Z,19.55
2022-08-03T01:56:48.869Z,19.46
2022-08-03T02:02:28.486Z,19.58
2022-08-03T02:07:14.157Z,19.45
2022-08-03T02:12:16.266Z,19.39
2022-08-03T02:17:38.730Z,19.49
2022-08-03T02:22:42.853Z,19.39
2022-08-03T02:27:52.389Z,19.26
2022-08-03T02:32:55.915Z,19.28
2022-08-03T02:38:02.214Z,18.93
2022-08-03T02:43:07.833Z,19.14
2022-08-03T02:48:11.490Z,18.69
2022-08-03T02:53:16.147Z,18.77
2022-08-03T02:58:19.767Z,18.81
2022-08-03T03:03:22.321Z,18.92
2022-08-03T03:08:28.164Z,18.77
2022-08-03T03:13:32.294Z,18.96
2022-08-03T03:18:34.298Z,18.80
2022-08-03T03:23:38.381Z,18.90
2022-08-03T03:28:40.745Z,18.57
2022-08-03T03:33:42.727Z,18.63
2022-08-03T03:38:44.455Z,18.49
2022-08-03T03:43:46.027Z,18.51
2022-08-03T03:48:50.868Z,18.66
2022-08-03T03:54:00.502Z,18.53
2022-08-03T03:59:02.263Z,18.58
2022-08-03T04:04:04.013Z,18.66
2022-08-03T04:09:07.336Z,18.87
2022-08-03T04:14:19.896Z,18.63
2022-08-03T04:19:35.146Z,18.04
2022-08-03T04:24:43.040Z,18.42
2022-08-03T04:29:48.782Z,18.60
2022-08-03T04:34:50.761Z,18.52
2022-08-03T04:39:54.401Z,18.14
2022-08-03T04:45:01.660Z,18.29
2022-08-03T04:50:09.167Z,18.61
2022-08-03T04:55:25.672Z,19.31
2022-08-03T05:00:27.774Z,20.14
2022-08-03T05:05:36.263Z,20.11
2022-08-03T05:10:50.921Z,21.03
2022-08-03T05:15:52.565Z,21.31
2022-08-03T05:20:54.137Z,21.59
2022-08-03T05:25:55.702Z,22.23
2022-08-03T05:30:57.367Z,22.66
2022-08-03T05:36:03.223Z,22.70
2022-08-03T05:41:21.061Z,23.56
2022-08-03T05:46:25.453Z,24.31
2022-08-03T05:51:27.185Z,24.98
2022-08-03T05:56:29.065Z,24.98
2022-08-03T06:01:30.611Z,25.84
2022-08-03T06:06:32.569Z,25.83
2022-08-03T06:11:34.066Z,26.38
2022-08-03T06:16:35.734Z,26.70
2022-08-03T06:21:37.270Z,26.51
2022-08-03T06:26:41.431Z,26.66
2022-08-03T06:31:42.882Z,26.75
2022-08-03T06:36:44.442Z,27.09
2022-08-03T06:41:46.044Z,27.71
2022-08-03T06:46:47.588Z,27.76
2022-08-03T06:52:03.491Z,28.05
2022-08-03T06:57:06.488Z,29.06
2022-08-03T07:02:07.984Z,27.55
2022-08-03T07:07:09.647Z,28.44
2022-08-03T07:12:11.527Z,28.36
2022-08-03T07:17:14.853Z,28.56
2022-08-03T07:22:16.642Z,29.74
2022-08-03T07:27:18.388Z,29.31
2022-08-03T07:32:19.919Z,29.55
2022-08-03T07:37:21.411Z,30.22
2022-08-03T07:42:22.984Z,30.68
2022-08-03T07:47:35.746Z,32.18
2022-08-03T07:52:37.576Z,31.41
2022-08-03T07:57:39.167Z,31.98
2022-08-03T08:02:41.555Z,32.76
2022-08-03T08:07:43.002Z,36.01
2022-08-03T08:12:44.487Z,37.05
2022-08-03T08:17:49.339Z,33.29
2022-08-03T08:22:50.944Z,33.07
2022-08-03T08:28:29.332Z,30.48
2022-08-03T08:33:23.049Z,30.39
2022-08-03T08:38:26.063Z,30.29
2022-08-03T08:43:28.222Z,31.49
2022-08-03T08:48:31.047Z,31.37
2022-08-03T08:53:36.510Z,31.79
2022-08-03T08:58:47.001Z,31.05
2022-08-03T09:03:49.033Z,31.14
2022-08-03T09:08:50.858Z,30.80
2022-08-03T09:13:52.374Z,30.88
2022-08-03T09:18:54.875Z,30.76
2022-08-03T09:24:03.764Z,30.94
2022-08-03T09:29:13.835Z,30.93
2022-08-03T09:34:17.672Z,31.35
2022-08-03T09:39:41.508Z,31.91
2022-08-03T09:44:48.149Z,31.81
2022-08-03T09:50:08.146Z,31.90
2022-08-03T09:56:30.405Z,31.77
2022-08-03T10:00:52.239Z,32.07
2022-08-03T10:05:59.324Z,32.52
2022-08-03T10:11:01.258Z,32.52
2022-08-03T10:16:21.403Z,32.35
2022-08-03T10:21:28.798Z,32.47
2022-08-03T10:26:31.703Z,32.39
2022-08-03T10:31:54.480Z,32.45
2022-08-03T10:37:02.271Z,32.58
2022-08-03T10:42:04.246Z,32.35
2022-08-03T10:47:07.469Z,32.20
2022-08-03T10:52:13.365Z,32.26
2022-08-03T10:58:01.430Z,32.29
2022-08-03T11:03:11.357Z,32.67
2022-08-03T11:08:18.970Z,32.41
2022-08-03T11:13:22.850Z,32.36
2022-08-03T11:18:27.067Z,32.25
2022-08-03T11:24:05.648Z,32.12
2022-08-03T11:29:27.516Z,32.05
2022-08-03T11:34:29.099Z,32.34
2022-08-03T11:39:42.375Z,31.97
2022-08-03T11:44:46.845Z,32.01
2022-08-03T11:49:50.924Z,31.65
2022-08-03T11:54:56.783Z,31.57
2022-08-03T11:59:58.930Z,31.54
2022-08-03T12:05:00.413Z,31.33
2022-08-03T12:10:08.657Z,31.61
2022-08-03T12:15:10.623Z,31.26
2022-08-03T12:20:22.137Z,31.40
2022-08-03T12:25:38.713Z,31.44
2022-08-03T12:30:41.341Z,31.44
2022-08-03T12:35:52.298Z,31.46
2022-08-03T12:40:59.398Z,31.51
2022-08-03T12:46:18.442Z,31.24
2022-08-03T12:51:19.907Z,31.47
2022-08-03T12:56:21.445Z,31.19
2022-08-03T13:01:23.103Z,31.42
2022-08-03T13:06:25.255Z,31.57
2022-08-03T13:11:53.504Z,31.74
2022-08-03T13:16:49.463Z,31.67
2022-08-03T13:22:03.739Z,31.38
2022-08-03T13:27:22.524Z,32.06
2022-08-03T13:32:28.143Z,31.96
2022-08-03T13:37:30.213Z,31.67
2022-08-03T13:42:33.782Z,31.41
2022-08-03T13:47:35.228Z,31.50
2022-08-03T13:52:36.716Z,31.62
2022-08-03T13:58:19.045Z,31.40
2022-08-03T14:03:12.568Z,31.86
2022-08-03T14:08:15.143Z,31.70
2022-08-03T14:13:17.588Z,31.38
2022-08-03T14:18:29.253Z,31.33
2022-08-03T14:23:36.814Z,31.67
2022-08-03T14:28:38.255Z,31.27
2022-08-03T14:33:40.140Z,31.56
2022-08-03T14:38:41.643Z,31.11
2022-08-03T14:44:02.145Z,31.47
2022-08-03T14:50:36.455Z,31.72
2022-08-03T14:54:25.726Z,31.72
2022-08-03T14:59:53.873Z,31.57
2022-08-03T15:04:51.997Z,31.60
2022-08-03T15:09:53.607Z,31.67
2022-08-03T15:14:55.171Z,31.08
2022-08-03T15:20:01.029Z,31.64
2022-08-03T15:26:30.292Z,30.39
2022-08-03T15:30:39.779Z,30.98
2022-08-03T15:35:41.294Z,31.05
2022-08-03T15:40:42.756Z,30.95
2022-08-03T15:45:44.314Z,30.35
2022-08-03T15:50:45.875Z,29.95
2022-08-03T15:55:47.329Z,29.86
2022-08-03T16:00:49.400Z,29.79
2022-08-03T16:05:51.010Z,29.62
2022-08-03T16:10:52.529Z,29.93
2022-08-03T16:15:54.715Z,29.55
2022-08-03T16:20:56.198Z,29.32
2022-08-03T16:25:57.711Z,29.38
2022-08-03T16:30:59.422Z,29.46
2022-08-03T16:36:01.198Z,29.75
2022-08-03T16:41:02.755Z,29.48
2022-08-03T16:46:04.231Z,29.99
2022-08-03T16:51:05.820Z,29.85
2022-08-03T16:56:10.691Z,29.53
2022-08-03T17:01:21.126Z,29.82
2022-08-03T17:06:25.983Z,29.67
2022-08-03T17:11:38.224Z,29.48
2022-08-03T17:16:51.990Z,29.41
2022-08-03T17:22:10.630Z,29.31
2022-08-03T17:28:49.100Z,29.00
2022-08-03T17:32:56.872Z,29.06
2022-08-03T17:38:03.683Z,28.97
2022-08-03T17:44:13.454Z,28.82
2022-08-03T17:48:32.160Z,28.75
2022-08-03T17:53:38.731Z,28.85
2022-08-03T17:59:10.527Z,28.64
2022-08-03T18:04:12.297Z,28.37
2022-08-03T18:10:06.197Z,28.22
2022-08-03T18:14:57.284Z,28.03
2022-08-03T18:20:11.647Z,28.06
2022-08-03T18:25:42.357Z,27.84
2022-08-03T18:30:53.196Z,27.66
2022-08-03T18:35:57.621Z,27.58
2022-08-03T18:40:59.063Z,27.51
2022-08-03T18:46:06.163Z,27.28
2022-08-03T18:51:28.820Z,26.98
2022-08-03T18:56:45.787Z,27.04
2022-08-03T19:02:00.914Z,26.79
2022-08-03T19:07:08.062Z,26.61
2022-08-03T19:12:27.277Z,26.48
2022-08-03T19:17:36.189Z,26.40
2022-08-03T19:22:40.635Z,26.27
2022-08-03T19:27:48.295Z,26.05
2022-08-03T19:32:51.068Z,25.95
2022-08-03T19:37:52.606Z,25.87
2022-08-03T19:43:03.436Z,25.70
2022-08-03T19:48:11.601Z,25.53
2022-08-03T19:53:13.303Z,25.39
2022-08-03T19:58:17.810Z,25.36
2022-08-03T20:03:43.332Z,25.23
2022-08-03T20:08:45.485Z,25.09
2022-08-03T20:13:54.720Z,25.04
2022-08-03T20:18:56.309Z,24.97
2022-08-03T20:24:23.515Z,24.83
2022-08-03T20:30:05.370Z,24.75
2022-08-03T20:34:50.569Z,24.73
2022-08-03T20:39:54.539Z,24.46
2022-08-03T20:45:04.405Z,24.47
2022-08-03T20:50:08.920Z,24.40
2022-08-03T20:55:12.984Z,24.28
2022-08-03T21:00:16.751Z,24.11
2022-08-03T21:05:30.925Z,24.00
2022-08-03T21:10:42.049Z,24.00
2022-08-03T21:16:04.863Z,23.77
2022-08-03T21:21:14.566Z,23.73
2022-08-03T21:26:18.732Z,23.79
2022-08-03T21:31:21.388Z,23.65
2022-08-03T21:36:30.314Z,23.63
2022-08-03T21:41:32.543Z,23.55
2022-08-03T21:46:37.122Z,23.36
2022-08-03T21:51:39.670Z,23.31
2022-08-03T21:56:42.919Z,23.26
2022-08-03T22:01:48.859Z,22.98
2022-08-03T22:06:51.103Z,23.10
2022-08-03T22:11:53.019Z,23.02
2022-08-03T22:16:54.760Z,22.89
2022-08-03T22:21:56.728Z,22.84
2022-08-03T22:27:01.219Z,22.87
2022-08-03T22:32:02.972Z,22.74
2022-08-03T22:37:06.244Z,22.75
2022-08-03T22:42:08.289Z,22.25
2022-08-03T22:47:10.468Z,22.68
2022-08-03T22:52:13.265Z,22.44
2022-08-03T22:57:15.873Z,22.28
2022-08-03T23:02:21.116Z,22.43
2022-08-03T23:07:37.161Z,22.10
2022-08-03T23:12:39.992Z,22.32
2022-08-03T23:17:58.081Z,22.04
2022-08-03T23:23:00.660Z,22.10
2022-08-03T23:28:05.160Z,21.93
2022-08-03T23:33:09.089Z,21.88
2022-08-03T23:38:22.808Z,21.64
2022-08-03T23:43:44.863Z,21.82
2022-08-03T23:48:53.830Z,21.44
2022-08-03T23:54:32.120Z,21.51
2022-08-03T23:59:59.503Z,21.43
